sensor_id;sensor_type;location;lat;lon;timestamp;P1;durP1;ratioP1;P2;durP2;ratioP2
16426;SDS011;8322;-33.900;151.170;2022-08-25T00:02:29;16.85;;;2.15;;
16426;SDS011;8322;-33.900;151.170;2022-08-25T00:04:59;6.10;;;1.13;;
16426;SDS011;8322;-33.900;151.170;2022-08-25T00:07:28;9.25;;;1.20;;
16426;SDS011;8322;-33.900;151.170;2022-08-25T00:09:58;4.82;;;1.48;;
16426;SDS011;8322;-33.900;151.170;2022-08-25T00:12:30;10.82;;;1.77;;
16426;SDS011;8322;-33.900;151.170;2022-08-25T00:14:59;1.33;;;1.08;;
16426;SDS011;8322;-33.900;151.170;2022-08-25T00:17:29;11.60;;;1.70;;
16426;SDS011;8322;-33.900;151.170;2022-08-25T00:20:00;2.95;;;1.27;;
16426;SDS011;8322;-33.900;151.170;2022-08-25T00:22:29;3.67;;;1.02;;
16426;SDS011;8322;-33.900;151.170;2022-08-25T00:24:59;13.93;;;2.50;;
16426;SDS011;8322;-33.900;151.170;2022-08-25T00:27:31;3.25;;;0.98;;
16426;SDS011;8322;-33.900;151.170;2022-08-25T00:30:00;4.55;;;1.40;;
16426;SDS011;8322;-33.900;151.170;2022-08-25T00:32:30;3.55;;;1.40;;
16426;SDS011;8322;-33.900;151.170;2022-08-25T00:35:00;3.55;;;0.93;;
16426;SDS011;8322;-33.900;151.170;2022-08-25T00:37:30;4.47;;;0.90;;
16426;SDS011;8322;-33.900;151.170;2022-08-25T00:40:01;2.88;;;0.75;;
16426;SDS011;8322;-33.900;151.170;2022-08-25T00:42:33;1.65;;;0.98;;
16426;SDS011;8322;-33.900;151.170;2022-08-25T00:45:03;1.50;;;0.80;;
16426;SDS011;8322;-33.900;151.170;2022-08-25T00:47:34;2.22;;;0.70;;
16426;SDS011;8322;-33.900;151.170;2022-08-25T00:50:07;5.25;;;0.80;;
16426;SDS011;8322;-33.900;151.170;2022-08-25T00:52:38;2.05;;;0.82;;
16426;SDS011;8322;-33.900;151.170;2022-08-25T00:55:10;1.77;;;1.10;;
16426;SDS011;8322;-33.900;151.170;2022-08-25T00:57:45;1.60;;;0.70;;
16426;SDS011;8322;-33.900;151.170;2022-08-25T01:00:16;0.60;;;0.60;;
16426;SDS011;8322;-33.900;151.170;2022-08-25T01:02:55;3.42;;;1.00;;
16426;SDS011;8322;-33.900;151.170;2022-08-25T01:05:29;2.63;;;0.80;;
16426;SDS011;8322;-33.900;151.170;2022-08-25T01:10:57;1.20;;;0.75;;
16426;SDS011;8322;-33.900;151.170;2022-08-25T01:13:31;2.25;;;0.80;;
16426;SDS011;8322;-33.900;151.170;2022-08-25T01:16:02;1.23;;;0.60;;
16426;SDS011;8322;-33.900;151.170;2022-08-25T01:18:42;1.80;;;0.63;;
16426;SDS011;8322;-33.900;151.170;2022-08-25T01:21:14;1.30;;;0.40;;
16426;SDS011;8322;-33.900;151.170;2022-08-25T01:23:44;0.40;;;0.40;;
16426;SDS011;8322;-33.900;151.170;2022-08-25T01:26:15;1.02;;;0.40;;
16426;SDS011;8322;-33.900;151.170;2022-08-25T01:28:46;0.85;;;0.40;;
16426;SDS011;8322;-33.900;151.170;2022-08-25T01:31:32;0.40;;;0.40;;
16426;SDS011;8322;-33.900;151.170;2022-08-25T01:34:03;1.25;;;0.50;;
16426;SDS011;8322;-33.900;151.170;2022-08-25T01:36:35;2.88;;;0.80;;
16426;SDS011;8322;-33.900;151.170;2022-08-25T01:39:05;1.73;;;0.50;;
16426;SDS011;8322;-33.900;151.170;2022-08-25T01:41:35;0.40;;;0.40;;
16426;SDS011;8322;-33.900;151.170;2022-08-25T01:44:08;0.65;;;0.40;;
16426;SDS011;8322;-33.900;151.170;2022-08-25T01:46:38;0.77;;;0.52;;
16426;SDS011;8322;-33.900;151.170;2022-08-25T01:49:08;1.02;;;0.50;;
16426;SDS011;8322;-33.900;151.170;2022-08-25T01:51:41;2.15;;;1.38;;
16426;SDS011;8322;-33.900;151.170;2022-08-25T01:54:12;4.05;;;1.20;;
16426;SDS011;8322;-33.900;151.170;2022-08-25T01:56:41;0.50;;;0.50;;
16426;SDS011;8322;-33.900;151.170;2022-08-25T01:59:13;1.42;;;0.43;;
16426;SDS011;8322;-33.900;151.170;2022-08-25T02:01:44;1.52;;;0.60;;
16426;SDS011;8322;-33.900;151.170;2022-08-25T02:04:13;1.23;;;0.60;;
16426;SDS011;8322;-33.900;151.170;2022-08-25T02:06:45;1.15;;;0.60;;
16426;SDS011;8322;-33.900;151.170;2022-08-25T02:09:16;1.65;;;0.50;;
16426;SDS011;8322;-33.900;151.170;2022-08-25T02:11:46;0.50;;;0.50;;
16426;SDS011;8322;-33.900;151.170;2022-08-25T02:14:16;0.98;;;0.60;;
16426;SDS011;8322;-33.900;151.170;2022-08-25T02:16:46;1.38;;;0.50;;
16426;SDS011;8322;-33.900;151.170;2022-08-25T02:19:16;1.85;;;0.65;;
16426;SDS011;8322;-33.900;151.170;2022-08-25T02:21:48;0.77;;;0.65;;
16426;SDS011;8322;-33.900;151.170;2022-08-25T02:24:18;2.35;;;0.57;;
16426;SDS011;8322;-33.900;151.170;2022-08-25T02:26:48;0.80;;;0.60;;
16426;SDS011;8322;-33.900;151.170;2022-08-25T02:29:18;0.60;;;0.60;;
16426;SDS011;8322;-33.900;151.170;2022-08-25T02:31:48;1.58;;;0.63;;
16426;SDS011;8322;-33.900;151.170;2022-08-25T02:34:18;1.40;;;0.80;;
16426;SDS011;8322;-33.900;151.170;2022-08-25T02:36:50;1.85;;;0.60;;
16426;SDS011;8322;-33.900;151.170;2022-08-25T02:39:19;0.70;;;0.70;;
16426;SDS011;8322;-33.900;151.170;2022-08-25T02:41:49;0.68;;;0.60;;
16426;SDS011;8322;-33.900;151.170;2022-08-25T02:44:19;1.38;;;0.60;;
16426;SDS011;8322;-33.900;151.170;2022-08-25T02:46:49;2.47;;;0.70;;
16426;SDS011;8322;-33.900;151.170;2022-08-25T02:49:18;0.98;;;0.70;;
16426;SDS011;8322;-33.900;151.170;2022-08-25T02:51:50;0.40;;;0.40;;
16426;SDS011;8322;-33.900;151.170;2022-08-25T02:54:20;5.10;;;0.50;;
16426;SDS011;8322;-33.900;151.170;2022-08-25T02:56:51;2.00;;;0.60;;
16426;SDS011;8322;-33.900;151.170;2022-08-25T02:59:20;0.65;;;0.50;;
16426;SDS011;8322;-33.900;151.170;2022-08-25T03:01:50;0.60;;;0.60;;
16426;SDS011;8322;-33.900;151.170;2022-08-25T03:04:20;0.88;;;0.70;;
16426;SDS011;8322;-33.900;151.170;2022-08-25T03:06:51;0.85;;;0.65;;
16426;SDS011;8322;-33.900;151.170;2022-08-25T03:09:22;1.77;;;0.70;;
16426;SDS011;8322;-33.900;151.170;2022-08-25T03:11:52;4.35;;;0.93;;
16426;SDS011;8322;-33.900;151.170;2022-08-25T03:14:22;3.55;;;1.00;;
16426;SDS011;8322;-33.900;151.170;2022-08-25T03:16:51;2.40;;;0.82;;
16426;SDS011;8322;-33.900;151.170;2022-08-25T03:19:21;1.17;;;0.63;;
16426;SDS011;8322;-33.900;151.170;2022-08-25T03:21:53;1.90;;;0.80;;
16426;SDS011;8322;-33.900;151.170;2022-08-25T03:24:24;2.53;;;0.95;;
16426;SDS011;8322;-33.900;151.170;2022-08-25T03:26:54;1.90;;;0.73;;
16426;SDS011;8322;-33.900;151.170;2022-08-25T03:29:23;2.72;;;0.68;;
16426;SDS011;8322;-33.900;151.170;2022-08-25T03:31:53;0.60;;;0.60;;
16426;SDS011;8322;-33.900;151.170;2022-08-25T03:34:24;0.95;;;0.50;;
16426;SDS011;8322;-33.900;151.170;2022-08-25T03:36:56;0.50;;;0.50;;
16426;SDS011;8322;-33.900;151.170;2022-08-25T03:39:26;0.50;;;0.50;;
16426;SDS011;8322;-33.900;151.170;2022-08-25T03:41:56;0.95;;;0.52;;
16426;SDS011;8322;-33.900;151.170;2022-08-25T03:44:26;1.35;;;0.50;;
16426;SDS011;8322;-33.900;151.170;2022-08-25T03:46:55;1.92;;;0.70;;
16426;SDS011;8322;-33.900;151.170;2022-08-25T03:49:25;5.93;;;0.90;;
16426;SDS011;8322;-33.900;151.170;2022-08-25T03:51:57;6.22;;;0.80;;
16426;SDS011;8322;-33.900;151.170;2022-08-25T03:54:27;2.65;;;0.60;;
16426;SDS011;8322;-33.900;151.170;2022-08-25T03:56:56;1.50;;;0.50;;
16426;SDS011;8322;-33.900;151.170;2022-08-25T03:59:26;0.52;;;0.50;;
16426;SDS011;8322;-33.900;151.170;2022-08-25T04:01:56;1.85;;;0.60;;
16426;SDS011;8322;-33.900;151.170;2022-08-25T04:04:26;5.00;;;0.70;;
16426;SDS011;8322;-33.900;151.170;2022-08-25T04:06:58;4.22;;;0.70;;
16426;SDS011;8322;-33.900;151.170;2022-08-25T04:09:28;3.60;;;0.75;;
16426;SDS011;8322;-33.900;151.170;2022-08-25T04:11:57;9.82;;;1.23;;
16426;SDS011;8322;-33.900;151.170;2022-08-25T04:14:27;2.20;;;0.60;;
16426;SDS011;8322;-33.900;151.170;2022-08-25T04:16:57;8.38;;;0.93;;
16426;SDS011;8322;-33.900;151.170;2022-08-25T04:19:26;0.55;;;0.40;;
16426;SDS011;8322;-33.900;151.170;2022-08-25T04:21:58;7.93;;;0.80;;
16426;SDS011;8322;-33.900;151.170;2022-08-25T04:24:28;2.35;;;0.70;;
16426;SDS011;8322;-33.900;151.170;2022-08-25T04:26:57;1.52;;;0.75;;
16426;SDS011;8322;-33.900;151.170;2022-08-25T04:29:27;5.05;;;0.88;;
16426;SDS011;8322;-33.900;151.170;2022-08-25T04:31:57;4.10;;;0.90;;
16426;SDS011;8322;-33.900;151.170;2022-08-25T04:34:27;1.80;;;0.70;;
16426;SDS011;8322;-33.900;151.170;2022-08-25T04:36:59;2.10;;;0.55;;
16426;SDS011;8322;-33.900;151.170;2022-08-25T04:39:31;3.42;;;0.85;;
16426;SDS011;8322;-33.900;151.170;2022-08-25T04:42:01;3.08;;;0.90;;
16426;SDS011;8322;-33.900;151.170;2022-08-25T04:44:30;2.35;;;0.77;;
16426;SDS011;8322;-33.900;151.170;2022-08-25T04:47:00;1.85;;;0.80;;
16426;SDS011;8322;-33.900;151.170;2022-08-25T04:49:30;4.38;;;0.82;;
16426;SDS011;8322;-33.900;151.170;2022-08-25T04:52:02;2.95;;;0.90;;
16426;SDS011;8322;-33.900;151.170;2022-08-25T04:54:32;2.13;;;0.90;;
16426;SDS011;8322;-33.900;151.170;2022-08-25T04:57:01;1.70;;;0.80;;
16426;SDS011;8322;-33.900;151.170;2022-08-25T04:59:31;0.60;;;0.60;;
16426;SDS011;8322;-33.900;151.170;2022-08-25T05:02:01;2.05;;;0.80;;
16426;SDS011;8322;-33.900;151.170;2022-08-25T05:04:31;1.08;;;0.75;;
16426;SDS011;8322;-33.900;151.170;2022-08-25T05:07:03;1.75;;;0.70;;
16426;SDS011;8322;-33.900;151.170;2022-08-25T05:09:33;1.15;;;0.70;;
16426;SDS011;8322;-33.900;151.170;2022-08-25T05:12:03;1.00;;;0.77;;
16426;SDS011;8322;-33.900;151.170;2022-08-25T05:14:33;6.95;;;0.60;;
16426;SDS011;8322;-33.900;151.170;2022-08-25T05:17:03;1.08;;;0.60;;
16426;SDS011;8322;-33.900;151.170;2022-08-25T05:19:33;2.70;;;0.82;;
16426;SDS011;8322;-33.900;151.170;2022-08-25T05:22:05;3.03;;;0.80;;
16426;SDS011;8322;-33.900;151.170;2022-08-25T05:24:35;2.17;;;0.80;;
16426;SDS011;8322;-33.900;151.170;2022-08-25T05:27:05;1.80;;;0.60;;
16426;SDS011;8322;-33.900;151.170;2022-08-25T05:29:34;0.63;;;0.60;;
16426;SDS011;8322;-33.900;151.170;2022-08-25T05:32:04;1.15;;;0.80;;
16426;SDS011;8322;-33.900;151.170;2022-08-25T05:34:35;0.90;;;0.80;;
16426;SDS011;8322;-33.900;151.170;2022-08-25T05:37:06;2.17;;;0.80;;
16426;SDS011;8322;-33.900;151.170;2022-08-25T05:39:36;0.98;;;0.88;;
16426;SDS011;8322;-33.900;151.170;2022-08-25T05:42:06;2.28;;;0.93;;
16426;SDS011;8322;-33.900;151.170;2022-08-25T05:44:36;2.30;;;0.90;;
16426;SDS011;8322;-33.900;151.170;2022-08-25T05:47:05;4.97;;;0.80;;
16426;SDS011;8322;-33.900;151.170;2022-08-25T05:49:35;1.13;;;0.60;;
16426;SDS011;8322;-33.900;151.170;2022-08-25T05:52:07;1.70;;;0.88;;
16426;SDS011;8322;-33.900;151.170;2022-08-25T05:54:37;1.25;;;0.65;;
16426;SDS011;8322;-33.900;151.170;2022-08-25T05:57:06;4.25;;;0.98;;
16426;SDS011;8322;-33.900;151.170;2022-08-25T05:59:36;2.35;;;0.73;;
16426;SDS011;8322;-33.900;151.170;2022-08-25T06:02:06;1.15;;;0.70;;
16426;SDS011;8322;-33.900;151.170;2022-08-25T06:04:51;3.58;;;1.00;;
16426;SDS011;8322;-33.900;151.170;2022-08-25T06:07:23;0.80;;;0.70;;
16426;SDS011;8322;-33.900;151.170;2022-08-25T06:09:52;2.58;;;0.73;;
16426;SDS011;8322;-33.900;151.170;2022-08-25T06:12:22;1.75;;;0.80;;
16426;SDS011;8322;-33.900;151.170;2022-08-25T06:14:52;2.78;;;0.60;;
16426;SDS011;8322;-33.900;151.170;2022-08-25T06:17:22;2.72;;;0.93;;
16426;SDS011;8322;-33.900;151.170;2022-08-25T06:19:52;3.83;;;1.02;;
16426;SDS011;8322;-33.900;151.170;2022-08-25T06:22:24;3.15;;;0.95;;
16426;SDS011;8322;-33.900;151.170;2022-08-25T06:24:53;2.47;;;0.82;;
16426;SDS011;8322;-33.900;151.170;2022-08-25T06:27:23;1.98;;;0.70;;
16426;SDS011;8322;-33.900;151.170;2022-08-25T06:29:53;2.00;;;0.70;;
16426;SDS011;8322;-33.900;151.170;2022-08-25T06:32:23;1.70;;;0.75;;
16426;SDS011;8322;-33.900;151.170;2022-08-25T06:34:52;5.53;;;0.88;;
16426;SDS011;8322;-33.900;151.170;2022-08-25T06:37:25;3.67;;;0.80;;
16426;SDS011;8322;-33.900;151.170;2022-08-25T06:39:55;2.83;;;1.30;;
16426;SDS011;8322;-33.900;151.170;2022-08-25T06:42:25;6.82;;;1.25;;
16426;SDS011;8322;-33.900;151.170;2022-08-25T06:44:54;4.85;;;1.33;;
16426;SDS011;8322;-33.900;151.170;2022-08-25T06:47:24;4.75;;;0.90;;
16426;SDS011;8322;-33.900;151.170;2022-08-25T06:49:54;2.60;;;0.88;;
16426;SDS011;8322;-33.900;151.170;2022-08-25T06:52:25;2.60;;;1.30;;
16426;SDS011;8322;-33.900;151.170;2022-08-25T06:54:55;4.07;;;1.10;;
16426;SDS011;8322;-33.900;151.170;2022-08-25T06:57:25;1.92;;;1.00;;
16426;SDS011;8322;-33.900;151.170;2022-08-25T06:59:55;1.48;;;0.80;;
16426;SDS011;8322;-33.900;151.170;2022-08-25T07:02:24;3.33;;;0.90;;
16426;SDS011;8322;-33.900;151.170;2022-08-25T07:04:54;2.80;;;0.90;;
16426;SDS011;8322;-33.900;151.170;2022-08-25T07:07:26;2.53;;;0.80;;
16426;SDS011;8322;-33.900;151.170;2022-08-25T07:09:55;1.70;;;0.75;;
16426;SDS011;8322;-33.900;151.170;2022-08-25T07:12:25;1.13;;;0.80;;
16426;SDS011;8322;-33.900;151.170;2022-08-25T07:14:55;2.45;;;1.52;;
16426;SDS011;8322;-33.900;151.170;2022-08-25T07:17:24;2.88;;;1.13;;
16426;SDS011;8322;-33.900;151.170;2022-08-25T07:19:54;1.13;;;0.90;;
16426;SDS011;8322;-33.900;151.170;2022-08-25T07:22:26;2.13;;;1.05;;
16426;SDS011;8322;-33.900;151.170;2022-08-25T07:24:55;2.25;;;0.95;;
16426;SDS011;8322;-33.900;151.170;2022-08-25T07:27:25;2.40;;;0.85;;
16426;SDS011;8322;-33.900;151.170;2022-08-25T07:29:56;2.80;;;1.00;;
16426;SDS011;8322;-33.900;151.170;2022-08-25T07:32:26;1.60;;;0.93;;
16426;SDS011;8322;-33.900;151.170;2022-08-25T07:34:55;2.95;;;1.52;;
16426;SDS011;8322;-33.900;151.170;2022-08-25T07:37:47;5.25;;;1.38;;
16426;SDS011;8322;-33.900;151.170;2022-08-25T07:40:18;3.72;;;1.40;;
16426;SDS011;8322;-33.900;151.170;2022-08-25T07:42:48;5.70;;;1.60;;
16426;SDS011;8322;-33.900;151.170;2022-08-25T07:45:19;6.28;;;1.60;;
16426;SDS011;8322;-33.900;151.170;2022-08-25T07:47:55;4.55;;;1.70;;
16426;SDS011;8322;-33.900;151.170;2022-08-25T07:50:25;4.68;;;1.63;;
16426;SDS011;8322;-33.900;151.170;2022-08-25T07:52:57;5.10;;;1.67;;
16426;SDS011;8322;-33.900;151.170;2022-08-25T07:55:27;4.88;;;1.55;;
16426;SDS011;8322;-33.900;151.170;2022-08-25T07:57:57;5.32;;;1.90;;
16426;SDS011;8322;-33.900;151.170;2022-08-25T08:00:27;4.30;;;1.80;;
16426;SDS011;8322;-33.900;151.170;2022-08-25T08:02:58;6.20;;;2.03;;
16426;SDS011;8322;-33.900;151.170;2022-08-25T08:05:28;5.97;;;2.20;;
16426;SDS011;8322;-33.900;151.170;2022-08-25T08:08:00;4.40;;;1.80;;
16426;SDS011;8322;-33.900;151.170;2022-08-25T08:10:29;6.05;;;2.55;;
16426;SDS011;8322;-33.900;151.170;2022-08-25T08:12:59;7.60;;;4.75;;
16426;SDS011;8322;-33.900;151.170;2022-08-25T08:15:29;6.28;;;4.38;;
16426;SDS011;8322;-33.900;151.170;2022-08-25T08:17:59;5.35;;;3.35;;
16426;SDS011;8322;-33.900;151.170;2022-08-25T08:20:28;5.00;;;2.80;;
16426;SDS011;8322;-33.900;151.170;2022-08-25T08:23:01;3.88;;;2.60;;
16426;SDS011;8322;-33.900;151.170;2022-08-25T08:25:30;4.18;;;2.58;;
16426;SDS011;8322;-33.900;151.170;2022-08-25T08:28:00;4.00;;;2.05;;
16426;SDS011;8322;-33.900;151.170;2022-08-25T08:30:33;3.97;;;1.80;;
16426;SDS011;8322;-33.900;151.170;2022-08-25T08:33:03;3.00;;;1.67;;
16426;SDS011;8322;-33.900;151.170;2022-08-25T08:35:33;3.88;;;1.70;;
16426;SDS011;8322;-33.900;151.170;2022-08-25T08:38:04;3.08;;;1.58;;
16426;SDS011;8322;-33.900;151.170;2022-08-25T08:40:36;4.22;;;1.60;;
16426;SDS011;8322;-33.900;151.170;2022-08-25T08:43:32;1.83;;;1.38;;
16426;SDS011;8322;-33.900;151.170;2022-08-25T08:46:02;3.72;;;1.48;;
16426;SDS011;8322;-33.900;151.170;2022-08-25T08:48:39;3.00;;;1.30;;
16426;SDS011;8322;-33.900;151.170;2022-08-25T08:51:14;4.70;;;1.67;;
16426;SDS011;8322;-33.900;151.170;2022-08-25T08:53:50;2.95;;;1.60;;
16426;SDS011;8322;-33.900;151.170;2022-08-25T08:56:22;2.65;;;1.50;;
16426;SDS011;8322;-33.900;151.170;2022-08-25T08:58:54;3.85;;;1.55;;
16426;SDS011;8322;-33.900;151.170;2022-08-25T09:01:24;2.75;;;1.40;;
16426;SDS011;8322;-33.900;151.170;2022-08-25T09:03:56;2.83;;;1.48;;
16426;SDS011;8322;-33.900;151.170;2022-08-25T09:06:29;4.00;;;1.60;;
16426;SDS011;8322;-33.900;151.170;2022-08-25T09:09:03;2.72;;;1.55;;
16426;SDS011;8322;-33.900;151.170;2022-08-25T09:11:37;3.13;;;1.80;;
16426;SDS011;8322;-33.900;151.170;2022-08-25T09:14:12;2.38;;;1.60;;
16426;SDS011;8322;-33.900;151.170;2022-08-25T09:16:46;4.55;;;1.98;;
16426;SDS011;8322;-33.900;151.170;2022-08-25T09:19:27;4.38;;;2.30;;
16426;SDS011;8322;-33.900;151.170;2022-08-25T09:22:01;3.83;;;2.03;;
16426;SDS011;8322;-33.900;151.170;2022-08-25T09:24:40;5.32;;;1.95;;
16426;SDS011;8322;-33.900;151.170;2022-08-25T09:27:17;4.75;;;2.15;;
16426;SDS011;8322;-33.900;151.170;2022-08-25T09:29:55;7.18;;;2.58;;
16426;SDS011;8322;-33.900;151.170;2022-08-25T09:32:26;4.05;;;2.05;;
16426;SDS011;8322;-33.900;151.170;2022-08-25T09:34:57;6.38;;;2.47;;
16426;SDS011;8322;-33.900;151.170;2022-08-25T09:37:27;6.75;;;2.95;;
16426;SDS011;8322;-33.900;151.170;2022-08-25T09:39:59;3.60;;;2.42;;
16426;SDS011;8322;-33.900;151.170;2022-08-25T09:42:48;4.53;;;1.85;;
16426;SDS011;8322;-33.900;151.170;2022-08-25T09:45:29;4.18;;;1.67;;
16426;SDS011;8322;-33.900;151.170;2022-08-25T09:48:00;4.20;;;1.10;;
16426;SDS011;8322;-33.900;151.170;2022-08-25T09:50:30;2.75;;;1.20;;
16426;SDS011;8322;-33.900;151.170;2022-08-25T09:55:55;2.90;;;1.20;;
16426;SDS011;8322;-33.900;151.170;2022-08-25T09:58:25;2.58;;;1.20;;
16426;SDS011;8322;-33.900;151.170;2022-08-25T10:01:02;2.38;;;1.30;;
16426;SDS011;8322;-33.900;151.170;2022-08-25T10:03:33;2.42;;;1.20;;
16426;SDS011;8322;-33.900;151.170;2022-08-25T10:06:04;1.65;;;1.20;;
16426;SDS011;8322;-33.900;151.170;2022-08-25T10:08:37;4.40;;;1.60;;
16426;SDS011;8322;-33.900;151.170;2022-08-25T10:11:10;4.28;;;2.35;;
16426;SDS011;8322;-33.900;151.170;2022-08-25T10:13:41;3.85;;;2.50;;
16426;SDS011;8322;-33.900;151.170;2022-08-25T10:16:12;4.03;;;2.35;;
16426;SDS011;8322;-33.900;151.170;2022-08-25T10:21:34;4.97;;;2.10;;
16426;SDS011;8322;-33.900;151.170;2022-08-25T10:24:04;4.53;;;2.83;;
16426;SDS011;8322;-33.900;151.170;2022-08-25T10:26:39;4.43;;;2.50;;
16426;SDS011;8322;-33.900;151.170;2022-08-25T10:29:16;7.65;;;3.10;;
16426;SDS011;8322;-33.900;151.170;2022-08-25T10:31:50;5.40;;;2.83;;
16426;SDS011;8322;-33.900;151.170;2022-08-25T10:34:32;4.63;;;2.78;;
16426;SDS011;8322;-33.900;151.170;2022-08-25T10:37:05;6.72;;;3.17;;
16426;SDS011;8322;-33.900;151.170;2022-08-25T10:39:40;4.47;;;3.28;;
16426;SDS011;8322;-33.900;151.170;2022-08-25T10:42:21;6.13;;;3.17;;
16426;SDS011;8322;-33.900;151.170;2022-08-25T10:45:02;6.97;;;3.22;;
16426;SDS011;8322;-33.900;151.170;2022-08-25T10:47:54;6.50;;;3.25;;
16426;SDS011;8322;-33.900;151.170;2022-08-25T10:50:29;7.00;;;2.92;;
16426;SDS011;8322;-33.900;151.170;2022-08-25T10:53:14;5.82;;;3.35;;
16426;SDS011;8322;-33.900;151.170;2022-08-25T10:55:48;6.93;;;3.20;;
16426;SDS011;8322;-33.900;151.170;2022-08-25T10:58:24;7.60;;;3.22;;
16426;SDS011;8322;-33.900;151.170;2022-08-25T11:00:58;8.00;;;3.38;;
16426;SDS011;8322;-33.900;151.170;2022-08-25T11:03:39;6.25;;;3.25;;
16426;SDS011;8322;-33.900;151.170;2022-08-25T11:06:13;6.03;;;3.30;;
16426;SDS011;8322;-33.900;151.170;2022-08-25T11:08:46;5.05;;;3.30;;
16426;SDS011;8322;-33.900;151.170;2022-08-25T11:11:19;6.75;;;3.40;;
16426;SDS011;8322;-33.900;151.170;2022-08-25T11:13:55;5.18;;;3.00;;
16426;SDS011;8322;-33.900;151.170;2022-08-25T11:16:30;7.53;;;3.20;;
16426;SDS011;8322;-33.900;151.170;2022-08-25T11:19:04;5.05;;;2.60;;
16426;SDS011;8322;-33.900;151.170;2022-08-25T11:21:35;12.60;;;4.40;;
16426;SDS011;8322;-33.900;151.170;2022-08-25T11:24:12;6.47;;;3.13;;
16426;SDS011;8322;-33.900;151.170;2022-08-25T11:26:43;7.80;;;3.33;;
16426;SDS011;8322;-33.900;151.170;2022-08-25T11:29:18;6.35;;;3.00;;
16426;SDS011;8322;-33.900;151.170;2022-08-25T11:31:50;6.05;;;3.60;;
16426;SDS011;8322;-33.900;151.170;2022-08-25T11:34:20;6.78;;;3.00;;
16426;SDS011;8322;-33.900;151.170;2022-08-25T11:36:52;5.90;;;3.30;;
16426;SDS011;8322;-33.900;151.170;2022-08-25T11:39:28;7.80;;;2.90;;
16426;SDS011;8322;-33.900;151.170;2022-08-25T11:42:02;10.68;;;2.95;;
16426;SDS011;8322;-33.900;151.170;2022-08-25T11:50:07;7.03;;;3.25;;
16426;SDS011;8322;-33.900;151.170;2022-08-25T11:52:48;4.78;;;2.78;;
16426;SDS011;8322;-33.900;151.170;2022-08-25T11:55:22;5.47;;;3.13;;
16426;SDS011;8322;-33.900;151.170;2022-08-25T12:00:39;9.80;;;3.28;;
16426;SDS011;8322;-33.900;151.170;2022-08-25T12:08:53;8.40;;;2.75;;
16426;SDS011;8322;-33.900;151.170;2022-08-25T12:14:14;6.57;;;3.00;;
16426;SDS011;8322;-33.900;151.170;2022-08-25T12:16:58;6.80;;;2.63;;
16426;SDS011;8322;-33.900;151.170;2022-08-25T12:19:29;9.32;;;3.13;;
16426;SDS011;8322;-33.900;151.170;2022-08-25T12:25:05;5.95;;;2.67;;
16426;SDS011;8322;-33.900;151.170;2022-08-25T12:27:39;10.35;;;2.92;;
16426;SDS011;8322;-33.900;151.170;2022-08-25T12:30:12;5.22;;;2.70;;
16426;SDS011;8322;-33.900;151.170;2022-08-25T12:32:50;6.63;;;2.97;;
16426;SDS011;8322;-33.900;151.170;2022-08-25T12:35:29;8.25;;;2.85;;
16426;SDS011;8322;-33.900;151.170;2022-08-25T12:38:00;7.80;;;3.00;;
16426;SDS011;8322;-33.900;151.170;2022-08-25T12:40:33;8.07;;;3.13;;
16426;SDS011;8322;-33.900;151.170;2022-08-25T12:43:08;7.28;;;2.65;;
16426;SDS011;8322;-33.900;151.170;2022-08-25T12:45:40;7.68;;;3.33;;
16426;SDS011;8322;-33.900;151.170;2022-08-25T12:50:59;5.80;;;3.00;;
16426;SDS011;8322;-33.900;151.170;2022-08-25T12:53:31;8.25;;;3.08;;
16426;SDS011;8322;-33.900;151.170;2022-08-25T12:56:06;6.93;;;3.30;;
16426;SDS011;8322;-33.900;151.170;2022-08-25T12:58:46;4.97;;;3.15;;
16426;SDS011;8322;-33.900;151.170;2022-08-25T13:01:19;5.03;;;3.00;;
16426;SDS011;8322;-33.900;151.170;2022-08-25T13:03:56;5.80;;;3.10;;
16426;SDS011;8322;-33.900;151.170;2022-08-25T13:06:34;8.50;;;3.10;;
16426;SDS011;8322;-33.900;151.170;2022-08-25T13:12:04;6.75;;;3.22;;
16426;SDS011;8322;-33.900;151.170;2022-08-25T13:14:36;7.32;;;3.20;;
16426;SDS011;8322;-33.900;151.170;2022-08-25T13:17:06;5.40;;;3.08;;
16426;SDS011;8322;-33.900;151.170;2022-08-25T13:19:36;6.18;;;3.33;;
16426;SDS011;8322;-33.900;151.170;2022-08-25T13:22:09;6.28;;;3.00;;
16426;SDS011;8322;-33.900;151.170;2022-08-25T13:24:40;6.13;;;3.40;;
16426;SDS011;8322;-33.900;151.170;2022-08-25T13:27:19;6.60;;;3.30;;
16426;SDS011;8322;-33.900;151.170;2022-08-25T13:29:51;5.90;;;3.30;;
16426;SDS011;8322;-33.900;151.170;2022-08-25T13:32:24;7.53;;;3.22;;
16426;SDS011;8322;-33.900;151.170;2022-08-25T13:35:06;4.78;;;2.75;;
16426;SDS011;8322;-33.900;151.170;2022-08-25T13:37:39;5.97;;;2.83;;
16426;SDS011;8322;-33.900;151.170;2022-08-25T13:40:08;5.00;;;2.70;;
16426;SDS011;8322;-33.900;151.170;2022-08-25T13:42:40;7.75;;;3.63;;
16426;SDS011;8322;-33.900;151.170;2022-08-25T13:45:12;6.72;;;2.90;;
16426;SDS011;8322;-33.900;151.170;2022-08-25T13:47:43;8.25;;;3.13;;
16426;SDS011;8322;-33.900;151.170;2022-08-25T13:50:17;6.60;;;3.20;;
16426;SDS011;8322;-33.900;151.170;2022-08-25T13:52:48;6.90;;;3.30;;
16426;SDS011;8322;-33.900;151.170;2022-08-25T13:55:21;9.27;;;3.45;;
16426;SDS011;8322;-33.900;151.170;2022-08-25T13:57:54;6.97;;;3.70;;
16426;SDS011;8322;-33.900;151.170;2022-08-25T14:00:26;8.98;;;3.78;;
16426;SDS011;8322;-33.900;151.170;2022-08-25T14:02:57;7.35;;;3.40;;
16426;SDS011;8322;-33.900;151.170;2022-08-25T14:05:34;8.30;;;3.53;;
16426;SDS011;8322;-33.900;151.170;2022-08-25T14:08:05;8.57;;;3.38;;
16426;SDS011;8322;-33.900;151.170;2022-08-25T14:10:36;6.05;;;3.70;;
16426;SDS011;8322;-33.900;151.170;2022-08-25T14:13:10;6.57;;;3.28;;
16426;SDS011;8322;-33.900;151.170;2022-08-25T14:15:40;9.35;;;3.30;;
16426;SDS011;8322;-33.900;151.170;2022-08-25T14:18:12;7.00;;;3.13;;
16426;SDS011;8322;-33.900;151.170;2022-08-25T14:20:43;7.07;;;3.22;;
16426;SDS011;8322;-33.900;151.170;2022-08-25T14:23:16;5.88;;;3.50;;
16426;SDS011;8322;-33.900;151.170;2022-08-25T14:25:48;5.63;;;3.28;;
16426;SDS011;8322;-33.900;151.170;2022-08-25T14:28:21;5.82;;;2.88;;
16426;SDS011;8322;-33.900;151.170;2022-08-25T14:30:52;5.35;;;3.40;;
16426;SDS011;8322;-33.900;151.170;2022-08-25T14:33:24;6.07;;;3.60;;
16426;SDS011;8322;-33.900;151.170;2022-08-25T14:35:56;6.78;;;3.15;;
16426;SDS011;8322;-33.900;151.170;2022-08-25T14:38:27;5.75;;;3.10;;
16426;SDS011;8322;-33.900;151.170;2022-08-25T14:40:57;6.00;;;3.40;;
16426;SDS011;8322;-33.900;151.170;2022-08-25T14:43:29;3.65;;;3.10;;
16426;SDS011;8322;-33.900;151.170;2022-08-25T14:45:59;6.93;;;3.60;;
16426;SDS011;8322;-33.900;151.170;2022-08-25T14:48:30;4.97;;;3.53;;
16426;SDS011;8322;-33.900;151.170;2022-08-25T14:51:00;6.53;;;3.50;;
16426;SDS011;8322;-33.900;151.170;2022-08-25T14:53:30;6.88;;;3.70;;
16426;SDS011;8322;-33.900;151.170;2022-08-25T14:56:00;7.80;;;3.90;;
16426;SDS011;8322;-33.900;151.170;2022-08-25T14:58:31;4.22;;;3.30;;
16426;SDS011;8322;-33.900;151.170;2022-08-25T15:01:01;9.30;;;3.38;;
16426;SDS011;8322;-33.900;151.170;2022-08-25T15:03:32;4.45;;;3.20;;
16426;SDS011;8322;-33.900;151.170;2022-08-25T15:06:02;6.47;;;3.50;;
16426;SDS011;8322;-33.900;151.170;2022-08-25T15:08:33;6.32;;;3.17;;
16426;SDS011;8322;-33.900;151.170;2022-08-25T15:11:19;4.32;;;3.08;;
16426;SDS011;8322;-33.900;151.170;2022-08-25T15:13:50;6.60;;;3.13;;
16426;SDS011;8322;-33.900;151.170;2022-08-25T15:16:21;5.20;;;2.90;;
16426;SDS011;8322;-33.900;151.170;2022-08-25T15:18:51;7.32;;;2.88;;
16426;SDS011;8322;-33.900;151.170;2022-08-25T15:21:21;7.78;;;3.55;;
16426;SDS011;8322;-33.900;151.170;2022-08-25T15:23:51;5.57;;;3.22;;